sensor_id;sensor_type;location;lat;lon;timestamp;temperature;humidity
76099;DHT22;64828;49.956;8.636;2023-03-23T00:00:09;14.20;54.90
76099;DHT22;64828;49.956;8.636;2023-03-23T00:00:25;14.20;54.90
76099;DHT22;64828;49.956;8.636;2023-03-23T00:00:41;14.20;55.00
76099;DHT22;64828;49.956;8.636;2023-03-23T00:00:56;14.20;54.90
76099;DHT22;64828;49.956;8.636;2023-03-23T00:01:15;14.10;55.00
76099;DHT22;64828;49.956;8.636;2023-03-23T00:01:35;14.20;54.90
76099;DHT22;64828;49.956;8.636;2023-03-23T00:01:52;14.20;55.00
76099;DHT22;64828;49.956;8.636;2023-03-23T00:02:08;14.10;55.10
76099;DHT22;64828;49.956;8.636;2023-03-23T00:02:28;14.20;55.10
76099;DHT22;64828;49.956;8.636;2023-03-23T00:02:50;14.10;55.30
76099;DHT22;64828;49.956;8.636;2023-03-23T00:03:06;14.10;55.20
76099;DHT22;64828;49.956;8.636;2023-03-23T00:03:22;14.10;55.20
76099;DHT22;64828;49.956;8.636;2023-03-23T00:03:40;14.10;55.20
76099;DHT22;64828;49.956;8.636;2023-03-23T00:03:57;14.10;55.30
76099;DHT22;64828;49.956;8.636;2023-03-23T00:04:14;14.10;55.50
76099;DHT22;64828;49.956;8.636;2023-03-23T00:04:30;14.10;55.20
76099;DHT22;64828;49.956;8.636;2023-03-23T00:04:45;14.20;55.10
76099;DHT22;64828;49.956;8.636;2023-03-23T00:05:06;14.10;55.20
76099;DHT22;64828;49.956;8.636;2023-03-23T00:05:24;14.10;55.20
76099;DHT22;64828;49.956;8.636;2023-03-23T00:05:40;14.10;55.10
76099;DHT22;64828;49.956;8.636;2023-03-23T00:05:56;14.20;54.90
76099;DHT22;64828;49.956;8.636;2023-03-23T00:06:19;14.20;54.90
76099;DHT22;64828;49.956;8.636;2023-03-23T00:06:36;14.10;55.20
76099;DHT22;64828;49.956;8.636;2023-03-23T00:06:52;14.20;55.20
76099;DHT22;64828;49.956;8.636;2023-03-23T00:07:08;14.10;55.20
76099;DHT22;64828;49.956;8.636;2023-03-23T00:07:24;14.10;55.60
76099;DHT22;64828;49.956;8.636;2023-03-23T00:07:42;14.10;55.30
76099;DHT22;64828;49.956;8.636;2023-03-23T00:08:00;14.10;55.50
76099;DHT22;64828;49.956;8.636;2023-03-23T00:08:19;14.10;55.40
76099;DHT22;64828;49.956;8.636;2023-03-23T00:08:38;14.10;55.40
76099;DHT22;64828;49.956;8.636;2023-03-23T00:09:00;14.10;55.40
76099;DHT22;64828;49.956;8.636;2023-03-23T00:09:18;14.10;55.40
76099;DHT22;64828;49.956;8.636;2023-03-23T00:09:38;14.20;55.20
76099;DHT22;64828;49.956;8.636;2023-03-23T00:09:56;14.10;55.30
76099;DHT22;64828;49.956;8.636;2023-03-23T00:10:12;14.10;55.30
76099;DHT22;64828;49.956;8.636;2023-03-23T00:10:27;14.10;55.40
76099;DHT22;64828;49.956;8.636;2023-03-23T00:10:49;14.20;55.30
76099;DHT22;64828;49.956;8.636;2023-03-23T00:11:20;14.20;55.20
76099;DHT22;64828;49.956;8.636;2023-03-23T00:11:37;14.20;55.30
76099;DHT22;64828;49.956;8.636;2023-03-23T00:11:54;14.10;55.40
76099;DHT22;64828;49.956;8.636;2023-03-23T00:12:12;14.10;55.50
76099;DHT22;64828;49.956;8.636;2023-03-23T00:12:31;14.10;55.60
76099;DHT22;64828;49.956;8.636;2023-03-23T00:12:50;14.10;55.60
76099;DHT22;64828;49.956;8.636;2023-03-23T00:13:05;14.10;55.50
76099;DHT22;64828;49.956;8.636;2023-03-23T00:13:21;14.10;55.50
76099;DHT22;64828;49.956;8.636;2023-03-23T00:13:37;14.10;55.60
76099;DHT22;64828;49.956;8.636;2023-03-23T00:13:53;14.10;55.70
76099;DHT22;64828;49.956;8.636;2023-03-23T00:14:09;14.10;55.60
76099;DHT22;64828;49.956;8.636;2023-03-23T00:14:37;14.10;55.70
76099;DHT22;64828;49.956;8.636;2023-03-23T00:15:00;14.10;55.70
76099;DHT22;64828;49.956;8.636;2023-03-23T00:15:16;14.10;55.70
76099;DHT22;64828;49.956;8.636;2023-03-23T00:15:32;14.10;55.80
76099;DHT22;64828;49.956;8.636;2023-03-23T00:15:48;14.00;55.80
76099;DHT22;64828;49.956;8.636;2023-03-23T00:16:04;14.10;55.70
76099;DHT22;64828;49.956;8.636;2023-03-23T00:16:22;14.00;55.50
76099;DHT22;64828;49.956;8.636;2023-03-23T00:16:44;14.10;55.50
76099;DHT22;64828;49.956;8.636;2023-03-23T00:17:00;14.10;55.50
76099;DHT22;64828;49.956;8.636;2023-03-23T00:17:17;14.10;55.50
76099;DHT22;64828;49.956;8.636;2023-03-23T00:17:34;14.10;55.70
76099;DHT22;64828;49.956;8.636;2023-03-23T00:17:50;14.10;55.70
76099;DHT22;64828;49.956;8.636;2023-03-23T00:18:06;14.10;55.90
76099;DHT22;64828;49.956;8.636;2023-03-23T00:18:22;14.10;55.80
76099;DHT22;64828;49.956;8.636;2023-03-23T00:18:38;14.10;55.80
76099;DHT22;64828;49.956;8.636;2023-03-23T00:18:54;14.10;55.80
76099;DHT22;64828;49.956;8.636;2023-03-23T00:19:11;14.10;55.90
76099;DHT22;64828;49.956;8.636;2023-03-23T00:19:28;14.10;56.00
76099;DHT22;64828;49.956;8.636;2023-03-23T00:19:44;14.10;55.80
76099;DHT22;64828;49.956;8.636;2023-03-23T00:20:02;14.10;55.70
76099;DHT22;64828;49.956;8.636;2023-03-23T00:20:20;14.10;55.90
76099;DHT22;64828;49.956;8.636;2023-03-23T00:20:39;14.10;55.70
76099;DHT22;64828;49.956;8.636;2023-03-23T00:20:56;14.10;55.60
76099;DHT22;64828;49.956;8.636;2023-03-23T00:21:12;14.10;55.70
76099;DHT22;64828;49.956;8.636;2023-03-23T00:21:30;14.10;55.60
76099;DHT22;64828;49.956;8.636;2023-03-23T00:21:48;14.10;55.70
76099;DHT22;64828;49.956;8.636;2023-03-23T00:22:08;14.10;55.60
76099;DHT22;64828;49.956;8.636;2023-03-23T00:22:24;14.10;55.80
76099;DHT22;64828;49.956;8.636;2023-03-23T00:22:40;14.10;55.90
76099;DHT22;64828;49.956;8.636;2023-03-23T00:22:56;14.10;55.90
76099;DHT22;64828;49.956;8.636;2023-03-23T00:23:19;14.10;55.80
76099;DHT22;64828;49.956;8.636;2023-03-23T00:23:38;14.00;55.80
76099;DHT22;64828;49.956;8.636;2023-03-23T00:23:54;14.10;56.00
76099;DHT22;64828;49.956;8.636;2023-03-23T00:24:11;14.00;56.10
76099;DHT22;64828;49.956;8.636;2023-03-23T00:24:31;14.10;56.30
76099;DHT22;64828;49.956;8.636;2023-03-23T00:24:47;14.00;56.30
76099;DHT22;64828;49.956;8.636;2023-03-23T00:25:07;14.00;56.20
76099;DHT22;64828;49.956;8.636;2023-03-23T00:25:23;14.10;55.90
76099;DHT22;64828;49.956;8.636;2023-03-23T00:25:39;14.00;56.00
76099;DHT22;64828;49.956;8.636;2023-03-23T00:25:55;14.10;55.90
76099;DHT22;64828;49.956;8.636;2023-03-23T00:26:14;14.10;55.70
76099;DHT22;64828;49.956;8.636;2023-03-23T00:26:30;14.10;55.80
76099;DHT22;64828;49.956;8.636;2023-03-23T00:26:48;14.10;55.90
76099;DHT22;64828;49.956;8.636;2023-03-23T00:27:06;14.00;56.00
76099;DHT22;64828;49.956;8.636;2023-03-23T00:27:23;14.00;56.00
76099;DHT22;64828;49.956;8.636;2023-03-23T00:27:39;14.00;56.00
76099;DHT22;64828;49.956;8.636;2023-03-23T00:27:55;14.10;56.00
76099;DHT22;64828;49.956;8.636;2023-03-23T00:28:11;14.00;56.20
76099;DHT22;64828;49.956;8.636;2023-03-23T00:28:28;14.10;56.00
76099;DHT22;64828;49.956;8.636;2023-03-23T00:28:44;14.00;56.20
76099;DHT22;64828;49.956;8.636;2023-03-23T00:29:04;14.00;56.30
76099;DHT22;64828;49.956;8.636;2023-03-23T00:29:22;14.00;56.30
76099;DHT22;64828;49.956;8.636;2023-03-23T00:29:38;14.00;56.40
76099;DHT22;64828;49.956;8.636;2023-03-23T00:29:55;14.00;56.30
76099;DHT22;64828;49.956;8.636;2023-03-23T00:30:12;14.00;56.10
76099;DHT22;64828;49.956;8.636;2023-03-23T00:30:28;14.00;56.10
76099;DHT22;64828;49.956;8.636;2023-03-23T00:30:45;14.00;56.20
76099;DHT22;64828;49.956;8.636;2023-03-23T00:31:05;14.00;56.30
76099;DHT22;64828;49.956;8.636;2023-03-23T00:31:22;14.00;56.50
76099;DHT22;64828;49.956;8.636;2023-03-23T00:31:37;14.00;56.70
76099;DHT22;64828;49.956;8.636;2023-03-23T00:31:53;14.00;56.60
76099;DHT22;64828;49.956;8.636;2023-03-23T00:32:09;14.00;56.40
76099;DHT22;64828;49.956;8.636;2023-03-23T00:32:28;14.00;56.50
76099;DHT22;64828;49.956;8.636;2023-03-23T00:32:43;14.00;56.60
76099;DHT22;64828;49.956;8.636;2023-03-23T00:32:59;14.00;56.60
76099;DHT22;64828;49.956;8.636;2023-03-23T00:33:14;14.00;56.70
76099;DHT22;64828;49.956;8.636;2023-03-23T00:33:34;14.00;56.70
76099;DHT22;64828;49.956;8.636;2023-03-23T00:33:56;14.00;56.80
76099;DHT22;64828;49.956;8.636;2023-03-23T00:34:12;14.00;56.70
76099;DHT22;64828;49.956;8.636;2023-03-23T00:34:34;14.00;56.80
76099;DHT22;64828;49.956;8.636;2023-03-23T00:34:49;14.00;56.70
76099;DHT22;64828;49.956;8.636;2023-03-23T00:35:05;14.00;56.80
76099;DHT22;64828;49.956;8.636;2023-03-23T00:35:22;14.00;57.00
76099;DHT22;64828;49.956;8.636;2023-03-23T00:35:38;14.00;56.90
76099;DHT22;64828;49.956;8.636;2023-03-23T00:35:55;14.00;57.00
76099;DHT22;64828;49.956;8.636;2023-03-23T00:36:12;14.00;56.90
76099;DHT22;64828;49.956;8.636;2023-03-23T00:36:28;14.00;56.90
76099;DHT22;64828;49.956;8.636;2023-03-23T00:36:47;14.00;57.00
76099;DHT22;64828;49.956;8.636;2023-03-23T00:37:08;14.00;57.00
76099;DHT22;64828;49.956;8.636;2023-03-23T00:37:25;14.00;57.30
76099;DHT22;64828;49.956;8.636;2023-03-23T00:37:41;14.00;57.20
76099;DHT22;64828;49.956;8.636;2023-03-23T00:37:57;14.00;57.20
76099;DHT22;64828;49.956;8.636;2023-03-23T00:38:14;14.00;57.30
76099;DHT22;64828;49.956;8.636;2023-03-23T00:38:29;14.00;57.50
76099;DHT22;64828;49.956;8.636;2023-03-23T00:38:45;14.00;57.40
76099;DHT22;64828;49.956;8.636;2023-03-23T00:39:03;13.90;57.50
76099;DHT22;64828;49.956;8.636;2023-03-23T00:39:19;14.00;57.60
76099;DHT22;64828;49.956;8.636;2023-03-23T00:39:36;14.00;57.60
76099;DHT22;64828;49.956;8.636;2023-03-23T00:39:53;14.00;57.70
76099;DHT22;64828;49.956;8.636;2023-03-23T00:40:12;13.90;57.50
76099;DHT22;64828;49.956;8.636;2023-03-23T00:40:28;13.90;57.70
76099;DHT22;64828;49.956;8.636;2023-03-23T00:40:44;14.00;57.50
76099;DHT22;64828;49.956;8.636;2023-03-23T00:41:00;14.00;57.50
76099;DHT22;64828;49.956;8.636;2023-03-23T00:41:18;14.00;57.50
76099;DHT22;64828;49.956;8.636;2023-03-23T00:41:33;14.00;57.50
76099;DHT22;64828;49.956;8.636;2023-03-23T00:41:51;14.00;57.60
76099;DHT22;64828;49.956;8.636;2023-03-23T00:42:08;14.00;57.70
76099;DHT22;64828;49.956;8.636;2023-03-23T00:42:24;14.00;57.70
76099;DHT22;64828;49.956;8.636;2023-03-23T00:42:40;14.00;57.90
76099;DHT22;64828;49.956;8.636;2023-03-23T00:42:56;13.90;57.70
76099;DHT22;64828;49.956;8.636;2023-03-23T00:43:11;13.90;57.70
76099;DHT22;64828;49.956;8.636;2023-03-23T00:43:29;14.00;57.80
76099;DHT22;64828;49.956;8.636;2023-03-23T00:43:46;13.90;57.90
76099;DHT22;64828;49.956;8.636;2023-03-23T00:44:03;14.00;58.00
76099;DHT22;64828;49.956;8.636;2023-03-23T00:44:19;13.90;58.20
76099;DHT22;64828;49.956;8.636;2023-03-23T00:44:38;13.90;58.00
76099;DHT22;64828;49.956;8.636;2023-03-23T00:44:54;13.90;57.90
76099;DHT22;64828;49.956;8.636;2023-03-23T00:45:15;13.90;58.00
76099;DHT22;64828;49.956;8.636;2023-03-23T00:45:31;13.90;58.10
76099;DHT22;64828;49.956;8.636;2023-03-23T00:45:50;13.90;58.00
76099;DHT22;64828;49.956;8.636;2023-03-23T00:46:09;13.90;58.00
76099;DHT22;64828;49.956;8.636;2023-03-23T00:46:25;13.90;58.20
76099;DHT22;64828;49.956;8.636;2023-03-23T00:46:40;13.90;58.20
76099;DHT22;64828;49.956;8.636;2023-03-23T00:46:59;13.90;58.20
76099;DHT22;64828;49.956;8.636;2023-03-23T00:47:16;13.90;58.20
76099;DHT22;64828;49.956;8.636;2023-03-23T00:47:32;13.90;58.10
76099;DHT22;64828;49.956;8.636;2023-03-23T00:47:51;14.00;58.20
76099;DHT22;64828;49.956;8.636;2023-03-23T00:48:06;13.90;58.20
76099;DHT22;64828;49.956;8.636;2023-03-23T00:48:23;13.90;58.20
76099;DHT22;64828;49.956;8.636;2023-03-23T00:48:39;13.90;58.30
76099;DHT22;64828;49.956;8.636;2023-03-23T00:48:59;13.90;58.40
76099;DHT22;64828;49.956;8.636;2023-03-23T00:49:20;13.90;58.50
76099;DHT22;64828;49.956;8.636;2023-03-23T00:49:40;13.90;58.60
76099;DHT22;64828;49.956;8.636;2023-03-23T00:49:56;13.90;58.60
76099;DHT22;64828;49.956;8.636;2023-03-23T00:50:12;13.90;58.60
76099;DHT22;64828;49.956;8.636;2023-03-23T00:50:29;13.90;58.50
76099;DHT22;64828;49.956;8.636;2023-03-23T00:50:44;13.90;58.50
76099;DHT22;64828;49.956;8.636;2023-03-23T00:51:00;13.90;58.60
76099;DHT22;64828;49.956;8.636;2023-03-23T00:51:18;13.90;58.50
76099;DHT22;64828;49.956;8.636;2023-03-23T00:51:34;13.90;58.60
76099;DHT22;64828;49.956;8.636;2023-03-23T00:51:53;13.90;58.60
76099;DHT22;64828;49.956;8.636;2023-03-23T00:52:13;13.90;58.70
76099;DHT22;64828;49.956;8.636;2023-03-23T00:52:28;13.90;58.70
76099;DHT22;64828;49.956;8.636;2023-03-23T00:52:44;13.90;58.70
76099;DHT22;64828;49.956;8.636;2023-03-23T00:53:00;13.90;58.80
76099;DHT22;64828;49.956;8.636;2023-03-23T00:53:16;13.90;58.90
76099;DHT22;64828;49.956;8.636;2023-03-23T00:53:33;13.90;58.90
76099;DHT22;64828;49.956;8.636;2023-03-23T00:53:49;13.90;59.00
76099;DHT22;64828;49.956;8.636;2023-03-23T00:54:05;13.90;59.00
76099;DHT22;64828;49.956;8.636;2023-03-23T00:54:21;13.90;58.90
76099;DHT22;64828;49.956;8.636;2023-03-23T00:54:38;13.90;58.90
76099;DHT22;64828;49.956;8.636;2023-03-23T00:54:53;13.90;59.00
76099;DHT22;64828;49.956;8.636;2023-03-23T00:55:09;13.90;59.00
76099;DHT22;64828;49.956;8.636;2023-03-23T00:55:25;13.90;59.10
76099;DHT22;64828;49.956;8.636;2023-03-23T00:55:42;13.80;59.20
76099;DHT22;64828;49.956;8.636;2023-03-23T00:55:58;13.80;59.30
76099;DHT22;64828;49.956;8.636;2023-03-23T00:56:15;13.80;59.50
76099;DHT22;64828;49.956;8.636;2023-03-23T00:56:31;13.80;59.30
76099;DHT22;64828;49.956;8.636;2023-03-23T00:56:47;13.80;59.40
76099;DHT22;64828;49.956;8.636;2023-03-23T00:57:02;13.80;59.60
76099;DHT22;64828;49.956;8.636;2023-03-23T00:57:18;13.80;59.40
76099;DHT22;64828;49.956;8.636;2023-03-23T00:57:34;13.80;59.40
76099;DHT22;64828;49.956;8.636;2023-03-23T00:57:49;13.90;59.30
76099;DHT22;64828;49.956;8.636;2023-03-23T00:58:06;13.80;59.20
76099;DHT22;64828;49.956;8.636;2023-03-23T00:58:21;13.90;59.30
76099;DHT22;64828;49.956;8.636;2023-03-23T00:58:37;13.90;59.30
76099;DHT22;64828;49.956;8.636;2023-03-23T00:58:53;13.80;59.40
76099;DHT22;64828;49.956;8.636;2023-03-23T00:59:08;13.90;59.40
76099;DHT22;64828;49.956;8.636;2023-03-23T00:59:24;13.80;59.40
76099;DHT22;64828;49.956;8.636;2023-03-23T00:59:40;13.90;59.40
76099;DHT22;64828;49.956;8.636;2023-03-23T00:59:56;13.90;59.40
76099;DHT22;64828;49.956;8.636;2023-03-23T01:00:12;13.90;59.60
76099;DHT22;64828;49.956;8.636;2023-03-23T01:00:28;13.90;59.50
76099;DHT22;64828;49.956;8.636;2023-03-23T01:00:44;13.90;59.50
76099;DHT22;64828;49.956;8.636;2023-03-23T01:00:59;13.80;59.50
76099;DHT22;64828;49.956;8.636;2023-03-23T01:01:15;13.90;59.40
76099;DHT22;64828;49.956;8.636;2023-03-23T01:01:31;13.90;59.50
76099;DHT22;64828;49.956;8.636;2023-03-23T01:01:48;13.90;59.50
76099;DHT22;64828;49.956;8.636;2023-03-23T01:02:04;13.90;59.60
76099;DHT22;64828;49.956;8.636;2023-03-23T01:02:20;13.80;59.70
76099;DHT22;64828;49.956;8.636;2023-03-23T01:02:39;13.90;59.70
76099;DHT22;64828;49.956;8.636;2023-03-23T01:02:55;13.90;59.60
76099;DHT22;64828;49.956;8.636;2023-03-23T01:03:11;13.90;59.70
76099;DHT22;64828;49.956;8.636;2023-03-23T01:03:34;13.90;59.60
76099;DHT22;64828;49.956;8.636;2023-03-23T01:03:51;13.90;59.80
76099;DHT22;64828;49.956;8.636;2023-03-23T01:04:08;13.90;59.80
76099;DHT22;64828;49.956;8.636;2023-03-23T01:04:27;13.90;59.90
76099;DHT22;64828;49.956;8.636;2023-03-23T01:04:43;13.80;60.10
76099;DHT22;64828;49.956;8.636;2023-03-23T01:05:00;13.90;60.10
76099;DHT22;64828;49.956;8.636;2023-03-23T01:05:16;13.80;60.00
76099;DHT22;64828;49.956;8.636;2023-03-23T01:05:35;13.80;60.20
76099;DHT22;64828;49.956;8.636;2023-03-23T01:05:52;13.80;60.20
76099;DHT22;64828;49.956;8.636;2023-03-23T01:06:10;13.80;60.30
76099;DHT22;64828;49.956;8.636;2023-03-23T01:06:28;13.90;60.20
76099;DHT22;64828;49.956;8.636;2023-03-23T01:06:49;13.80;60.20
76099;DHT22;64828;49.956;8.636;2023-03-23T01:07:09;13.80;60.30
76099;DHT22;64828;49.956;8.636;2023-03-23T01:07:27;13.80;60.40
76099;DHT22;64828;49.956;8.636;2023-03-23T01:07:46;13.80;60.50
76099;DHT22;64828;49.956;8.636;2023-03-23T01:08:04;13.80;60.30
76099;DHT22;64828;49.956;8.636;2023-03-23T01:08:22;13.80;60.40
76099;DHT22;64828;49.956;8.636;2023-03-23T01:08:40;13.80;60.40
76099;DHT22;64828;49.956;8.636;2023-03-23T01:09:00;13.80;60.30
76099;DHT22;64828;49.956;8.636;2023-03-23T01:09:18;13.80;60.30
76099;DHT22;64828;49.956;8.636;2023-03-23T01:09:36;13.80;60.50
76099;DHT22;64828;49.956;8.636;2023-03-23T01:09:55;13.80;60.50
76099;DHT22;64828;49.956;8.636;2023-03-23T01:10:13;13.80;60.60
76099;DHT22;64828;49.956;8.636;2023-03-23T01:10:33;13.80;60.70
76099;DHT22;64828;49.956;8.636;2023-03-23T01:10:49;13.80;60.50
76099;DHT22;64828;49.956;8.636;2023-03-23T01:11:06;13.80;60.50
76099;DHT22;64828;49.956;8.636;2023-03-23T01:11:22;13.80;60.50
76099;DHT22;64828;49.956;8.636;2023-03-23T01:11:38;13.80;60.50
76099;DHT22;64828;49.956;8.636;2023-03-23T01:11:54;13.80;60.40
76099;DHT22;64828;49.956;8.636;2023-03-23T01:12:11;13.80;60.20
76099;DHT22;64828;49.956;8.636;2023-03-23T01:12:27;13.80;60.40
76099;DHT22;64828;49.956;8.636;2023-03-23T01:12:44;13.80;60.40
76099;DHT22;64828;49.956;8.636;2023-03-23T01:13:00;13.80;60.50
76099;DHT22;64828;49.956;8.636;2023-03-23T01:13:17;13.80;60.60
76099;DHT22;64828;49.956;8.636;2023-03-23T01:13:33;13.80;60.50
76099;DHT22;64828;49.956;8.636;2023-03-23T01:13:48;13.80;60.60
76099;DHT22;64828;49.956;8.636;2023-03-23T01:14:05;13.80;60.40
76099;DHT22;64828;49.956;8.636;2023-03-23T01:14:20;13.80;60.50
76099;DHT22;64828;49.956;8.636;2023-03-23T01:14:36;13.80;60.60
76099;DHT22;64828;49.956;8.636;2023-03-23T01:14:52;13.80;60.70
76099;DHT22;64828;49.956;8.636;2023-03-23T01:15:08;13.80;60.70
76099;DHT22;64828;49.956;8.636;2023-03-23T01:15:24;13.70;60.70
76099;DHT22;64828;49.956;8.636;2023-03-23T01:15:41;13.80;60.70
76099;DHT22;64828;49.956;8.636;2023-03-23T01:15:57;13.80;60.70
76099;DHT22;64828;49.956;8.636;2023-03-23T01:16:13;13.80;60.60
76099;DHT22;64828;49.956;8.636;2023-03-23T01:16:29;13.80;60.50
76099;DHT22;64828;49.956;8.636;2023-03-23T01:16:44;13.80;60.40
76099;DHT22;64828;49.956;8.636;2023-03-23T01:17:00;13.80;60.30
76099;DHT22;64828;49.956;8.636;2023-03-23T01:17:15;13.80;60.30
76099;DHT22;64828;49.956;8.636;2023-03-23T01:17:31;13.80;60.40
76099;DHT22;64828;49.956;8.636;2023-03-23T01:17:47;13.80;60.20
76099;DHT22;64828;49.956;8.636;2023-03-23T01:18:03;13.80;60.20
76099;DHT22;64828;49.956;8.636;2023-03-23T01:18:19;13.80;60.30
76099;DHT22;64828;49.956;8.636;2023-03-23T01:18:35;13.80;60.10
76099;DHT22;64828;49.956;8.636;2023-03-23T01:18:51;13.80;60.30
76099;DHT22;64828;49.956;8.636;2023-03-23T01:19:07;13.80;60.20
76099;DHT22;64828;49.956;8.636;2023-03-23T01:19:23;13.80;60.10
76099;DHT22;64828;49.956;8.636;2023-03-23T01:19:38;13.80;60.30
76099;DHT22;64828;49.956;8.636;2023-03-23T01:19:55;13.80;60.10
76099;DHT22;64828;49.956;8.636;2023-03-23T01:20:13;13.80;60.00
76099;DHT22;64828;49.956;8.636;2023-03-23T01:20:30;13.80;60.10
76099;DHT22;64828;49.956;8.636;2023-03-23T01:20:46;13.80;59.90
76099;DHT22;64828;49.956;8.636;2023-03-23T01:21:09;13.80;60.00
76099;DHT22;64828;49.956;8.636;2023-03-23T01:21:28;13.80;60.10
76099;DHT22;64828;49.956;8.636;2023-03-23T01:21:44;13.80;60.00
76099;DHT22;64828;49.956;8.636;2023-03-23T01:22:00;13.80;60.10
76099;DHT22;64828;49.956;8.636;2023-03-23T01:22:15;13.80;60.00
76099;DHT22;64828;49.956;8.636;2023-03-23T01:22:32;13.80;60.00
76099;DHT22;64828;49.956;8.636;2023-03-23T01:22:47;13.80;60.10
76099;DHT22;64828;49.956;8.636;2023-03-23T01:23:03;13.80;60.10
76099;DHT22;64828;49.956;8.636;2023-03-23T01:23:19;13.80;60.00
76099;DHT22;64828;49.956;8.636;2023-03-23T01:23:36;13.80;60.10
76099;DHT22;64828;49.956;8.636;2023-03-23T01:23:52;13.80;60.10
76099;DHT22;64828;49.956;8.636;2023-03-23T01:24:08;13.80;59.90
76099;DHT22;64828;49.956;8.636;2023-03-23T01:24:23;13.80;59.90
76099;DHT22;64828;49.956;8.636;2023-03-23T01:24:39;13.80;59.50
76099;DHT22;64828;49.956;8.636;2023-03-23T01:24:55;13.80;59.70
76099;DHT22;64828;49.956;8.636;2023-03-23T01:25:11;13.80;59.60
76099;DHT22;64828;49.956;8.636;2023-03-23T01:25:30;13.80;59.80
76099;DHT22;64828;49.956;8.636;2023-03-23T01:25:47;13.80;60.00
76099;DHT22;64828;49.956;8.636;2023-03-23T01:26:11;13.80;60.00
76099;DHT22;64828;49.956;8.636;2023-03-23T01:26:29;13.80;60.00
76099;DHT22;64828;49.956;8.636;2023-03-23T01:26:44;13.80;59.90
76099;DHT22;64828;49.956;8.636;2023-03-23T01:27:00;13.80;59.80
76099;DHT22;64828;49.956;8.636;2023-03-23T01:27:21;13.80;59.70
76099;DHT22;64828;49.956;8.636;2023-03-23T01:27:37;13.80;60.00
76099;DHT22;64828;49.956;8.636;2023-03-23T01:27:53;13.80;60.10
76099;DHT22;64828;49.956;8.636;2023-03-23T01:28:09;13.80;60.10
76099;DHT22;64828;49.956;8.636;2023-03-23T01:28:25;13.80;60.20
76099;DHT22;64828;49.956;8.636;2023-03-23T01:28:42;13.80;60.20
76099;DHT22;64828;49.956;8.636;2023-03-23T01:28:58;13.80;60.30
76099;DHT22;64828;49.956;8.636;2023-03-23T01:29:13;13.80;60.30
76099;DHT22;64828;49.956;8.636;2023-03-23T01:29:29;13.80;60.30
76099;DHT22;64828;49.956;8.636;2023-03-23T01:29:45;13.80;60.20
76099;DHT22;64828;49.956;8.636;2023-03-23T01:30:01;13.80;60.10
76099;DHT22;64828;49.956;8.636;2023-03-23T01:30:16;13.80;60.00
76099;DHT22;64828;49.956;8.636;2023-03-23T01:30:32;13.80;60.00
76099;DHT22;64828;49.956;8.636;2023-03-23T01:30:48;13.80;60.10
76099;DHT22;64828;49.956;8.636;2023-03-23T01:31:10;13.80;60.00
76099;DHT22;64828;49.956;8.636;2023-03-23T01:31:27;13.80;59.90
76099;DHT22;64828;49.956;8.636;2023-03-23T01:31:42;13.80;60.00
76099;DHT22;64828;49.956;8.636;2023-03-23T01:31:58;13.80;60.00
76099;DHT22;64828;49.956;8.636;2023-03-23T01:32:14;13.80;60.10
76099;DHT22;64828;49.956;8.636;2023-03-23T01:32:29;13.80;60.10
76099;DHT22;64828;49.956;8.636;2023-03-23T01:32:45;13.80;60.00
76099;DHT22;64828;49.956;8.636;2023-03-23T01:33:01;13.80;60.10
76099;DHT22;64828;49.956;8.636;2023-03-23T01:33:16;13.80;60.10
76099;DHT22;64828;49.956;8.636;2023-03-23T01:33:32;13.80;60.10
76099;DHT22;64828;49.956;8.636;2023-03-23T01:33:49;13.80;60.00
76099;DHT22;64828;49.956;8.636;2023-03-23T01:34:10;13.80;59.80
76099;DHT22;64828;49.956;8.636;2023-03-23T01:34:25;13.80;59.80
76099;DHT22;64828;49.956;8.636;2023-03-23T01:34:41;13.90;59.90
76099;DHT22;64828;49.956;8.636;2023-03-23T01:34:57;13.80;59.90
76099;DHT22;64828;49.956;8.636;2023-03-23T01:35:13;13.80;60.10
76099;DHT22;64828;49.956;8.636;2023-03-23T01:35:29;13.80;60.00
76099;DHT22;64828;49.956;8.636;2023-03-23T01:35:44;13.80;60.10
76099;DHT22;64828;49.956;8.636;2023-03-23T01:36:05;13.80;60.20
76099;DHT22;64828;49.956;8.636;2023-03-23T01:36:25;13.80;60.20
76099;DHT22;64828;49.956;8.636;2023-03-23T01:36:43;13.80;60.30
76099;DHT22;64828;49.956;8.636;2023-03-23T01:36:59;13.80;60.20
76099;DHT22;64828;49.956;8.636;2023-03-23T01:37:15;13.80;60.20
76099;DHT22;64828;49.956;8.636;2023-03-23T01:37:31;13.80;60.40
76099;DHT22;64828;49.956;8.636;2023-03-23T01:37:47;13.80;60.20
76099;DHT22;64828;49.956;8.636;2023-03-23T01:38:03;13.80;60.10
76099;DHT22;64828;49.956;8.636;2023-03-23T01:38:19;13.80;60.10
76099;DHT22;64828;49.956;8.636;2023-03-23T01:38:35;13.80;60.20
76099;DHT22;64828;49.956;8.636;2023-03-23T01:38:50;13.80;60.20
76099;DHT22;64828;49.956;8.636;2023-03-23T01:39:06;13.80;60.30
76099;DHT22;64828;49.956;8.636;2023-03-23T01:39:22;13.80;60.30
76099;DHT22;64828;49.956;8.636;2023-03-23T01:39:37;13.80;60.40
76099;DHT22;64828;49.956;8.636;2023-03-23T01:39:57;13.80;60.50
76099;DHT22;64828;49.956;8.636;2023-03-23T01:40:13;13.80;60.60
76099;DHT22;64828;49.956;8.636;2023-03-23T01:40:30;13.80;60.60
76099;DHT22;64828;49.956;8.636;2023-03-23T01:40:46;13.80;60.60
76099;DHT22;64828;49.956;8.636;2023-03-23T01:41:03;13.80;60.60
76099;DHT22;64828;49.956;8.636;2023-03-23T01:41:20;13.80;60.40
76099;DHT22;64828;49.956;8.636;2023-03-23T01:41:36;13.80;60.40
76099;DHT22;64828;49.956;8.636;2023-03-23T01:41:52;13.80;60.50
76099;DHT22;64828;49.956;8.636;2023-03-23T01:42:10;13.80;60.40
76099;DHT22;64828;49.956;8.636;2023-03-23T01:42:31;13.80;60.40
76099;DHT22;64828;49.956;8.636;2023-03-23T01:42:49;13.80;60.40
76099;DHT22;64828;49.956;8.636;2023-03-23T01:43:10;13.80;60.50
76099;DHT22;64828;49.956;8.636;2023-03-23T01:43:29;13.80;60.60
76099;DHT22;64828;49.956;8.636;2023-03-23T01:43:56;13.80;60.70
76099;DHT22;64828;49.956;8.636;2023-03-23T01:45:35;13.70;60.80
76099;DHT22;64828;49.956;8.636;2023-03-23T01:45:51;13.70;61.00
76099;DHT22;64828;49.956;8.636;2023-03-23T01:46:07;13.70;60.80
76099;DHT22;64828;49.956;8.636;2023-03-23T01:46:25;13.70;60.90
76099;DHT22;64828;49.956;8.636;2023-03-23T01:46:41;13.70;60.80
76099;DHT22;64828;49.956;8.636;2023-03-23T01:46:58;13.80;60.80
76099;DHT22;64828;49.956;8.636;2023-03-23T01:47:14;13.80;60.80
76099;DHT22;64828;49.956;8.636;2023-03-23T01:47:30;13.80;61.00
76099;DHT22;64828;49.956;8.636;2023-03-23T01:47:49;13.70;61.00
76099;DHT22;64828;49.956;8.636;2023-03-23T01:48:38;13.70;61.10
76099;DHT22;64828;49.956;8.636;2023-03-23T01:48:57;13.70;61.30
76099;DHT22;64828;49.956;8.636;2023-03-23T01:49:18;13.70;61.20
76099;DHT22;64828;49.956;8.636;2023-03-23T01:49:43;13.70;61.20
76099;DHT22;64828;49.956;8.636;2023-03-23T01:50:01;13.70;61.20